sensor_id;sensor_type;location;lat;lon;timestamp;pressure;altitude;pressure_sealevel;temperature;humidity
58223;BME280;44020;50.890;15.796;2022-11-15T00:01:07;97667.73;;;2.89;77.92
58223;BME280;44020;50.890;15.796;2022-11-15T00:03:34;97661.49;;;2.87;77.88
58223;BME280;44020;50.890;15.796;2022-11-15T00:06:03;97656.20;;;2.87;78.02
58223;BME280;44020;50.890;15.796;2022-11-15T00:08:32;97654.68;;;2.86;78.05
58223;BME280;44020;50.890;15.796;2022-11-15T00:11:01;97655.40;;;2.81;77.77
58223;BME280;44020;50.890;15.796;2022-11-15T00:13:29;97660.84;;;2.77;77.80
58223;BME280;44020;50.890;15.796;2022-11-15T00:15:58;97662.48;;;2.75;77.73
58223;BME280;44020;50.890;15.796;2022-11-15T00:18:25;97663.28;;;2.73;77.77
58223;BME280;44020;50.890;15.796;2022-11-15T00:20:52;97663.64;;;2.67;77.59
58223;BME280;44020;50.890;15.796;2022-11-15T00:23:20;97665.80;;;2.66;77.72
58223;BME280;44020;50.890;15.796;2022-11-15T00:25:47;97661.96;;;2.65;77.64
58223;BME280;44020;50.890;15.796;2022-11-15T00:28:14;97663.58;;;2.64;77.91
58223;BME280;44020;50.890;15.796;2022-11-15T00:30:41;97666.96;;;2.63;77.97
58223;BME280;44020;50.890;15.796;2022-11-15T00:33:08;97665.02;;;2.59;77.58
58223;BME280;44020;50.890;15.796;2022-11-15T00:35:36;97666.22;;;2.51;77.39
58223;BME280;44020;50.890;15.796;2022-11-15T00:38:03;97664.96;;;2.47;77.98
58223;BME280;44020;50.890;15.796;2022-11-15T00:40:30;97666.60;;;2.50;78.17
58223;BME280;44020;50.890;15.796;2022-11-15T00:42:58;97660.69;;;2.49;78.07
58223;BME280;44020;50.890;15.796;2022-11-15T00:45:25;97657.45;;;2.51;78.35
58223;BME280;44020;50.890;15.796;2022-11-15T00:47:53;97650.42;;;2.51;78.43
58223;BME280;44020;50.890;15.796;2022-11-15T00:50:20;97648.89;;;2.50;78.44
58223;BME280;44020;50.890;15.796;2022-11-15T00:52:47;97644.50;;;2.50;78.62
58223;BME280;44020;50.890;15.796;2022-11-15T00:55:18;97643.09;;;2.50;78.59
58223;BME280;44020;50.890;15.796;2022-11-15T00:57:46;97639.52;;;2.52;78.62
58223;BME280;44020;50.890;15.796;2022-11-15T01:00:13;97637.48;;;2.50;78.44
58223;BME280;44020;50.890;15.796;2022-11-15T01:02:41;97630.23;;;2.47;78.27
58223;BME280;44020;50.890;15.796;2022-11-15T01:05:08;97628.72;;;2.42;78.37
58223;BME280;44020;50.890;15.796;2022-11-15T01:07:36;97625.58;;;2.37;78.31
58223;BME280;44020;50.890;15.796;2022-11-15T01:10:04;97628.06;;;2.36;78.55
58223;BME280;44020;50.890;15.796;2022-11-15T01:12:32;97623.71;;;2.35;78.71
58223;BME280;44020;50.890;15.796;2022-11-15T01:14:59;97621.90;;;2.36;78.72
58223;BME280;44020;50.890;15.796;2022-11-15T01:17:26;97624.67;;;2.37;78.72
58223;BME280;44020;50.890;15.796;2022-11-15T01:19:53;97636.91;;;2.38;78.76
58223;BME280;44020;50.890;15.796;2022-11-15T01:22:21;97638.58;;;2.36;78.73
58223;BME280;44020;50.890;15.796;2022-11-15T01:24:51;97634.33;;;2.37;78.62
58223;BME280;44020;50.890;15.796;2022-11-15T01:27:18;97638.79;;;2.35;78.25
58223;BME280;44020;50.890;15.796;2022-11-15T01:29:45;97641.14;;;2.28;78.65
58223;BME280;44020;50.890;15.796;2022-11-15T01:32:12;97637.34;;;2.27;78.51
58223;BME280;44020;50.890;15.796;2022-11-15T01:34:39;97633.17;;;2.26;78.44
58223;BME280;44020;50.890;15.796;2022-11-15T01:37:06;97626.52;;;2.26;78.66
58223;BME280;44020;50.890;15.796;2022-11-15T01:39:33;97622.04;;;2.28;78.97
58223;BME280;44020;50.890;15.796;2022-11-15T01:42:01;97623.92;;;2.29;78.98
58223;BME280;44020;50.890;15.796;2022-11-15T01:47:00;97625.71;;;2.24;78.52
58223;BME280;44020;50.890;15.796;2022-11-15T01:49:30;97621.55;;;2.18;78.33
58223;BME280;44020;50.890;15.796;2022-11-15T01:52:01;97621.92;;;2.13;78.20
58223;BME280;44020;50.890;15.796;2022-11-15T01:54:29;97617.46;;;2.10;78.30
58223;BME280;44020;50.890;15.796;2022-11-15T01:57:01;97611.42;;;2.08;78.13
58223;BME280;44020;50.890;15.796;2022-11-15T01:59:29;97616.09;;;2.00;78.13
58223;BME280;44020;50.890;15.796;2022-11-15T02:01:56;97613.92;;;1.97;78.50
58223;BME280;44020;50.890;15.796;2022-11-15T02:04:28;97612.53;;;1.97;78.56
58223;BME280;44020;50.890;15.796;2022-11-15T02:06:57;97610.19;;;1.99;78.92
58223;BME280;44020;50.890;15.796;2022-11-15T02:09:25;97608.08;;;1.99;78.62
58223;BME280;44020;50.890;15.796;2022-11-15T02:11:54;97603.02;;;1.98;78.79
58223;BME280;44020;50.890;15.796;2022-11-15T02:14:23;97605.39;;;1.96;78.48
58223;BME280;44020;50.890;15.796;2022-11-15T02:20:39;97596.79;;;1.86;78.76
58223;BME280;44020;50.890;15.796;2022-11-15T02:23:52;97595.77;;;1.85;78.41
58223;BME280;44020;50.890;15.796;2022-11-15T02:32:45;97603.45;;;1.72;78.49
58223;BME280;44020;50.890;15.796;2022-11-15T02:37:56;97601.94;;;1.71;78.63
58223;BME280;44020;50.890;15.796;2022-11-15T02:40:36;97599.39;;;1.68;78.35
58223;BME280;44020;50.890;15.796;2022-11-15T02:43:10;97599.69;;;1.65;78.41
58223;BME280;44020;50.890;15.796;2022-11-15T02:46:06;97597.22;;;1.60;78.18
58223;BME280;44020;50.890;15.796;2022-11-15T02:48:36;97603.87;;;1.56;78.20
58223;BME280;44020;50.890;15.796;2022-11-15T02:51:05;97601.77;;;1.56;78.40
58223;BME280;44020;50.890;15.796;2022-11-15T02:53:33;97601.27;;;1.55;78.35
58223;BME280;44020;50.890;15.796;2022-11-15T02:56:00;97596.80;;;1.53;78.42
58223;BME280;44020;50.890;15.796;2022-11-15T02:58:48;97598.22;;;1.53;78.57
58223;BME280;44020;50.890;15.796;2022-11-15T03:01:38;97600.90;;;1.51;78.55
58223;BME280;44020;50.890;15.796;2022-11-15T03:04:19;97598.25;;;1.47;78.52
58223;BME280;44020;50.890;15.796;2022-11-15T03:06:57;97593.92;;;1.45;78.90
58223;BME280;44020;50.890;15.796;2022-11-15T03:12:30;97593.98;;;1.48;79.02
58223;BME280;44020;50.890;15.796;2022-11-15T03:15:08;97589.06;;;1.49;78.54
58223;BME280;44020;50.890;15.796;2022-11-15T03:20:26;97585.65;;;1.41;78.65
58223;BME280;44020;50.890;15.796;2022-11-15T03:22:56;97583.33;;;1.42;79.08
58223;BME280;44020;50.890;15.796;2022-11-15T03:25:26;97580.73;;;1.42;78.60
58223;BME280;44020;50.890;15.796;2022-11-15T03:27:57;97575.08;;;1.38;78.60
58223;BME280;44020;50.890;15.796;2022-11-15T03:30:27;97564.73;;;1.39;78.94
58223;BME280;44020;50.890;15.796;2022-11-15T03:32:56;97565.89;;;1.41;78.98
58223;BME280;44020;50.890;15.796;2022-11-15T03:35:27;97562.84;;;1.43;79.14
58223;BME280;44020;50.890;15.796;2022-11-15T03:38:26;97559.10;;;1.44;79.11
58223;BME280;44020;50.890;15.796;2022-11-15T03:41:01;97559.66;;;1.43;78.62
58223;BME280;44020;50.890;15.796;2022-11-15T03:43:44;97564.77;;;1.38;78.59
58223;BME280;44020;50.890;15.796;2022-11-15T03:46:31;97559.18;;;1.37;78.86
58223;BME280;44020;50.890;15.796;2022-11-15T03:49:31;97559.88;;;1.37;78.91
58223;BME280;44020;50.890;15.796;2022-11-15T03:52:01;97559.17;;;1.33;78.72
58223;BME280;44020;50.890;15.796;2022-11-15T03:54:29;97554.77;;;1.29;78.72
58223;BME280;44020;50.890;15.796;2022-11-15T03:56:57;97557.41;;;1.28;78.69
58223;BME280;44020;50.890;15.796;2022-11-15T03:59:24;97557.36;;;1.25;78.65
58223;BME280;44020;50.890;15.796;2022-11-15T04:01:51;97564.55;;;1.24;78.78
58223;BME280;44020;50.890;15.796;2022-11-15T04:04:18;97564.70;;;1.25;78.94
58223;BME280;44020;50.890;15.796;2022-11-15T04:06:45;97566.12;;;1.24;78.99
58223;BME280;44020;50.890;15.796;2022-11-15T04:09:12;97565.33;;;1.22;78.88
58223;BME280;44020;50.890;15.796;2022-11-15T04:11:40;97559.83;;;1.19;78.72
58223;BME280;44020;50.890;15.796;2022-11-15T04:14:07;97559.95;;;1.16;78.59
58223;BME280;44020;50.890;15.796;2022-11-15T04:16:34;97558.49;;;1.12;78.83
58223;BME280;44020;50.890;15.796;2022-11-15T04:19:01;97554.45;;;1.13;78.71
58223;BME280;44020;50.890;15.796;2022-11-15T04:21:47;97556.66;;;1.15;79.14
58223;BME280;44020;50.890;15.796;2022-11-15T04:24:33;97554.24;;;1.14;79.07
58223;BME280;44020;50.890;15.796;2022-11-15T04:27:00;97555.27;;;1.10;79.12
58223;BME280;44020;50.890;15.796;2022-11-15T04:29:27;97550.57;;;1.09;79.10
58223;BME280;44020;50.890;15.796;2022-11-15T04:32:03;97545.98;;;1.11;79.38
58223;BME280;44020;50.890;15.796;2022-11-15T04:34:31;97545.46;;;1.10;79.18
58223;BME280;44020;50.890;15.796;2022-11-15T04:36:59;97545.52;;;1.08;79.08
58223;BME280;44020;50.890;15.796;2022-11-15T04:39:43;97542.14;;;1.05;79.17
58223;BME280;44020;50.890;15.796;2022-11-15T04:42:10;97539.15;;;1.05;79.49
58223;BME280;44020;50.890;15.796;2022-11-15T04:44:38;97532.95;;;1.07;79.52
58223;BME280;44020;50.890;15.796;2022-11-15T04:47:05;97532.20;;;1.09;79.51
58223;BME280;44020;50.890;15.796;2022-11-15T04:49:32;97532.94;;;1.08;79.32
58223;BME280;44020;50.890;15.796;2022-11-15T04:51:59;97539.05;;;1.08;79.07
58223;BME280;44020;50.890;15.796;2022-11-15T04:54:27;97547.11;;;1.03;78.94
58223;BME280;44020;50.890;15.796;2022-11-15T04:56:54;97554.83;;;0.97;78.60
58223;BME280;44020;50.890;15.796;2022-11-15T04:59:21;97556.41;;;0.92;78.41
58223;BME280;44020;50.890;15.796;2022-11-15T05:01:48;97558.54;;;0.86;78.69
58223;BME280;44020;50.890;15.796;2022-11-15T05:04:16;97554.20;;;0.85;78.91
58223;BME280;44020;50.890;15.796;2022-11-15T05:06:48;97545.84;;;0.84;78.99
58223;BME280;44020;50.890;15.796;2022-11-15T05:09:17;97542.66;;;0.84;79.26
58223;BME280;44020;50.890;15.796;2022-11-15T05:11:45;97541.23;;;0.86;79.20
58223;BME280;44020;50.890;15.796;2022-11-15T05:14:12;97536.28;;;0.87;79.21
58223;BME280;44020;50.890;15.796;2022-11-15T05:16:40;97537.11;;;0.88;79.46
58223;BME280;44020;50.890;15.796;2022-11-15T05:19:08;97533.77;;;0.89;79.15
58223;BME280;44020;50.890;15.796;2022-11-15T05:21:36;97532.62;;;0.87;79.07
58223;BME280;44020;50.890;15.796;2022-11-15T05:24:03;97529.86;;;0.85;78.87
58223;BME280;44020;50.890;15.796;2022-11-15T05:26:31;97531.52;;;0.83;79.08
58223;BME280;44020;50.890;15.796;2022-11-15T05:28:59;97531.63;;;0.80;79.03
58223;BME280;44020;50.890;15.796;2022-11-15T05:31:27;97535.92;;;0.77;78.83
58223;BME280;44020;50.890;15.796;2022-11-15T05:33:55;97533.21;;;0.74;79.30
58223;BME280;44020;50.890;15.796;2022-11-15T05:36:37;97536.86;;;0.75;79.26
58223;BME280;44020;50.890;15.796;2022-11-15T05:39:06;97538.57;;;0.76;79.08
58223;BME280;44020;50.890;15.796;2022-11-15T05:41:37;97532.80;;;0.77;79.35
58223;BME280;44020;50.890;15.796;2022-11-15T05:44:07;97534.52;;;0.77;79.05
58223;BME280;44020;50.890;15.796;2022-11-15T05:46:37;97538.45;;;0.75;79.18
58223;BME280;44020;50.890;15.796;2022-11-15T05:49:09;97540.81;;;0.72;79.23
58223;BME280;44020;50.890;15.796;2022-11-15T05:51:39;97547.06;;;0.73;79.40
58223;BME280;44020;50.890;15.796;2022-11-15T05:54:08;97547.19;;;0.74;79.25
58223;BME280;44020;50.890;15.796;2022-11-15T05:56:36;97548.99;;;0.73;79.20
58223;BME280;44020;50.890;15.796;2022-11-15T05:59:04;97557.17;;;0.69;78.85
58223;BME280;44020;50.890;15.796;2022-11-15T06:01:31;97556.93;;;0.66;79.05
58223;BME280;44020;50.890;15.796;2022-11-15T06:03:58;97553.11;;;0.65;79.16
58223;BME280;44020;50.890;15.796;2022-11-15T06:06:27;97547.69;;;0.65;78.97
58223;BME280;44020;50.890;15.796;2022-11-15T06:08:55;97551.88;;;0.65;79.14
58223;BME280;44020;50.890;15.796;2022-11-15T06:11:22;97555.54;;;0.66;79.41
58223;BME280;44020;50.890;15.796;2022-11-15T06:13:49;97557.80;;;0.66;79.18
58223;BME280;44020;50.890;15.796;2022-11-15T06:16:17;97556.08;;;0.65;79.39
58223;BME280;44020;50.890;15.796;2022-11-15T06:18:44;97554.54;;;0.64;79.50
58223;BME280;44020;50.890;15.796;2022-11-15T06:21:11;97546.11;;;0.65;79.52
58223;BME280;44020;50.890;15.796;2022-11-15T06:23:38;97548.73;;;0.66;79.37
58223;BME280;44020;50.890;15.796;2022-11-15T06:26:05;97547.70;;;0.65;79.65
58223;BME280;44020;50.890;15.796;2022-11-15T06:28:33;97549.85;;;0.63;79.49
58223;BME280;44020;50.890;15.796;2022-11-15T06:31:10;97550.57;;;0.62;79.65
58223;BME280;44020;50.890;15.796;2022-11-15T06:33:38;97558.85;;;0.60;79.61
58223;BME280;44020;50.890;15.796;2022-11-15T06:36:11;97561.70;;;0.58;79.69
58223;BME280;44020;50.890;15.796;2022-11-15T06:38:40;97567.14;;;0.57;79.62
58223;BME280;44020;50.890;15.796;2022-11-15T06:41:09;97562.63;;;0.57;79.57
58223;BME280;44020;50.890;15.796;2022-11-15T06:43:39;97563.32;;;0.57;79.59
58223;BME280;44020;50.890;15.796;2022-11-15T06:46:07;97571.49;;;0.59;79.58
58223;BME280;44020;50.890;15.796;2022-11-15T06:48:35;97569.67;;;0.61;79.79
58223;BME280;44020;50.890;15.796;2022-11-15T06:51:04;97578.17;;;0.63;79.80
58223;BME280;44020;50.890;15.796;2022-11-15T06:53:31;97575.70;;;0.64;79.71
58223;BME280;44020;50.890;15.796;2022-11-15T06:56:04;97571.84;;;0.64;79.52
58223;BME280;44020;50.890;15.796;2022-11-15T06:58:32;97569.17;;;0.65;79.79
58223;BME280;44020;50.890;15.796;2022-11-15T07:01:01;97568.44;;;0.67;79.90
58223;BME280;44020;50.890;15.796;2022-11-15T07:03:29;97572.42;;;0.68;79.89
58223;BME280;44020;50.890;15.796;2022-11-15T07:05:57;97572.36;;;0.69;80.04
58223;BME280;44020;50.890;15.796;2022-11-15T07:08:26;97571.66;;;0.70;79.91
58223;BME280;44020;50.890;15.796;2022-11-15T07:10:58;97572.11;;;0.71;80.14
58223;BME280;44020;50.890;15.796;2022-11-15T07:13:26;97570.44;;;0.75;80.23
58223;BME280;44020;50.890;15.796;2022-11-15T07:15:54;97572.45;;;0.78;80.24
58223;BME280;44020;50.890;15.796;2022-11-15T07:18:21;97573.13;;;0.78;80.58
58223;BME280;44020;50.890;15.796;2022-11-15T07:20:48;97577.01;;;0.82;80.76
58223;BME280;44020;50.890;15.796;2022-11-15T07:23:15;97576.84;;;0.87;80.92
58223;BME280;44020;50.890;15.796;2022-11-15T07:25:42;97571.62;;;0.92;80.98
58223;BME280;44020;50.890;15.796;2022-11-15T07:28:09;97569.02;;;0.96;80.98
58223;BME280;44020;50.890;15.796;2022-11-15T07:30:36;97562.64;;;0.98;80.94
58223;BME280;44020;50.890;15.796;2022-11-15T07:33:03;97560.31;;;1.00;80.87
58223;BME280;44020;50.890;15.796;2022-11-15T07:35:30;97561.97;;;1.03;81.34
58223;BME280;44020;50.890;15.796;2022-11-15T07:37:59;97556.96;;;1.06;81.36
58223;BME280;44020;50.890;15.796;2022-11-15T07:40:28;97557.71;;;1.10;81.48
58223;BME280;44020;50.890;15.796;2022-11-15T07:43:03;97560.15;;;1.15;81.64
58223;BME280;44020;50.890;15.796;2022-11-15T07:45:31;97560.48;;;1.21;81.88
58223;BME280;44020;50.890;15.796;2022-11-15T07:48:01;97560.45;;;1.27;82.09
58223;BME280;44020;50.890;15.796;2022-11-15T07:50:28;97556.42;;;1.31;82.16
58223;BME280;44020;50.890;15.796;2022-11-15T07:52:59;97558.70;;;1.36;82.21
58223;BME280;44020;50.890;15.796;2022-11-15T07:55:27;97554.72;;;1.40;82.28
58223;BME280;44020;50.890;15.796;2022-11-15T07:58:06;97554.75;;;1.44;82.15
58223;BME280;44020;50.890;15.796;2022-11-15T08:00:34;97554.23;;;1.49;82.66
58223;BME280;44020;50.890;15.796;2022-11-15T08:03:12;97553.85;;;1.54;82.66
58223;BME280;44020;50.890;15.796;2022-11-15T08:05:41;97552.38;;;1.61;82.94
58223;BME280;44020;50.890;15.796;2022-11-15T08:08:10;97555.30;;;1.67;83.03
58223;BME280;44020;50.890;15.796;2022-11-15T08:10:37;97553.36;;;1.72;83.30
58223;BME280;44020;50.890;15.796;2022-11-15T08:13:07;97553.17;;;1.77;83.31
58223;BME280;44020;50.890;15.796;2022-11-15T08:15:35;97554.04;;;1.82;83.62
58223;BME280;44020;50.890;15.796;2022-11-15T08:18:05;97550.86;;;1.87;83.71
58223;BME280;44020;50.890;15.796;2022-11-15T08:20:33;97549.91;;;1.94;83.99
58223;BME280;44020;50.890;15.796;2022-11-15T08:23:02;97542.20;;;1.99;84.12
58223;BME280;44020;50.890;15.796;2022-11-15T08:25:31;97536.40;;;2.04;84.42
58223;BME280;44020;50.890;15.796;2022-11-15T08:28:03;97527.23;;;2.10;84.42
58223;BME280;44020;50.890;15.796;2022-11-15T08:30:36;97524.89;;;2.16;84.49
58223;BME280;44020;50.890;15.796;2022-11-15T08:33:03;97522.34;;;2.23;84.80
58223;BME280;44020;50.890;15.796;2022-11-15T08:35:31;97521.48;;;2.31;85.33
58223;BME280;44020;50.890;15.796;2022-11-15T08:37:58;97513.45;;;2.39;85.45
58223;BME280;44020;50.890;15.796;2022-11-15T08:40:25;97510.88;;;2.46;85.50
58223;BME280;44020;50.890;15.796;2022-11-15T08:42:53;97509.89;;;2.53;85.48
58223;BME280;44020;50.890;15.796;2022-11-15T08:45:20;97504.64;;;2.61;85.98
58223;BME280;44020;50.890;15.796;2022-11-15T08:47:48;97499.38;;;2.69;86.09
58223;BME280;44020;50.890;15.796;2022-11-15T08:50:15;97494.52;;;2.77;86.18
58223;BME280;44020;50.890;15.796;2022-11-15T08:52:42;97495.85;;;2.87;86.53
58223;BME280;44020;50.890;15.796;2022-11-15T08:55:09;97495.59;;;2.97;86.68
58223;BME280;44020;50.890;15.796;2022-11-15T08:57:36;97492.54;;;3.07;86.78
58223;BME280;44020;50.890;15.796;2022-11-15T09:00:04;97491.02;;;3.17;86.97
58223;BME280;44020;50.890;15.796;2022-11-15T09:02:31;97488.23;;;3.28;87.36
58223;BME280;44020;50.890;15.796;2022-11-15T09:04:58;97486.90;;;3.39;87.45
58223;BME280;44020;50.890;15.796;2022-11-15T09:07:25;97485.30;;;3.51;88.01
58223;BME280;44020;50.890;15.796;2022-11-15T09:09:52;97484.45;;;3.66;88.45
58223;BME280;44020;50.890;15.796;2022-11-15T09:12:19;97479.65;;;3.78;88.58
58223;BME280;44020;50.890;15.796;2022-11-15T09:14:46;97475.85;;;3.92;88.93
58223;BME280;44020;50.890;15.796;2022-11-15T09:17:13;97475.13;;;4.04;88.98
58223;BME280;44020;50.890;15.796;2022-11-15T09:19:40;97470.86;;;4.15;89.18
58223;BME280;44020;50.890;15.796;2022-11-15T09:22:08;97472.52;;;4.28;89.53
58223;BME280;44020;50.890;15.796;2022-11-15T09:24:35;97467.88;;;4.41;89.71
58223;BME280;44020;50.890;15.796;2022-11-15T09:27:02;97467.12;;;4.52;89.77
58223;BME280;44020;50.890;15.796;2022-11-15T09:29:29;97467.52;;;4.62;89.64
58223;BME280;44020;50.890;15.796;2022-11-15T09:31:56;97464.14;;;4.73;90.22
58223;BME280;44020;50.890;15.796;2022-11-15T09:34:23;97458.37;;;4.86;90.37
58223;BME280;44020;50.890;15.796;2022-11-15T09:36:50;97457.08;;;4.98;90.63
58223;BME280;44020;50.890;15.796;2022-11-15T09:39:17;97456.89;;;5.11;90.93
58223;BME280;44020;50.890;15.796;2022-11-15T09:44:47;97446.10;;;5.36;91.10
58223;BME280;44020;50.890;15.796;2022-11-15T09:47:41;97443.16;;;5.48;91.34
58223;BME280;44020;50.890;15.796;2022-11-15T09:50:44;97442.29;;;5.64;91.44
58223;BME280;44020;50.890;15.796;2022-11-15T09:53:11;97440.13;;;5.78;91.55
58223;BME280;44020;50.890;15.796;2022-11-15T09:56:38;97439.80;;;5.90;91.10
58223;BME280;44020;50.890;15.796;2022-11-15T10:01:39;97425.98;;;6.20;91.57
58223;BME280;44020;50.890;15.796;2022-11-15T10:04:09;97419.29;;;6.32;91.47
58223;BME280;44020;50.890;15.796;2022-11-15T10:06:43;97418.83;;;6.43;91.28
58223;BME280;44020;50.890;15.796;2022-11-15T10:09:16;97413.63;;;6.56;91.68
58223;BME280;44020;50.890;15.796;2022-11-15T10:11:46;97409.19;;;6.69;91.90
58223;BME280;44020;50.890;15.796;2022-11-15T10:14:18;97407.31;;;6.79;91.85
58223;BME280;44020;50.890;15.796;2022-11-15T10:17:06;97406.93;;;6.95;91.60
58223;BME280;44020;50.890;15.796;2022-11-15T10:19:51;97400.24;;;7.12;92.03
58223;BME280;44020;50.890;15.796;2022-11-15T10:22:39;97398.14;;;7.32;92.01
58223;BME280;44020;50.890;15.796;2022-11-15T10:27:35;97381.39;;;7.68;91.59
58223;BME280;44020;50.890;15.796;2022-11-15T10:30:06;97376.39;;;7.85;91.50
58223;BME280;44020;50.890;15.796;2022-11-15T10:32:37;97374.85;;;8.01;91.22
58223;BME280;44020;50.890;15.796;2022-11-15T10:35:30;97372.25;;;8.13;91.01
58223;BME280;44020;50.890;15.796;2022-11-15T10:38:08;97367.98;;;8.29;90.79
58223;BME280;44020;50.890;15.796;2022-11-15T10:40:37;97363.17;;;8.38;90.46
58223;BME280;44020;50.890;15.796;2022-11-15T10:43:15;97360.95;;;8.48;90.37
58223;BME280;44020;50.890;15.796;2022-11-15T10:45:44;97359.64;;;8.62;90.44
58223;BME280;44020;50.890;15.796;2022-11-15T10:50:40;97353.23;;;8.78;89.81
58223;BME280;44020;50.890;15.796;2022-11-15T10:55:47;97346.85;;;8.96;89.64
58223;BME280;44020;50.890;15.796;2022-11-15T11:01:26;97332.67;;;9.14;89.28
58223;BME280;44020;50.890;15.796;2022-11-15T11:04:05;97335.96;;;9.22;89.15
58223;BME280;44020;50.890;15.796;2022-11-15T11:06:53;97333.30;;;9.32;89.20
58223;BME280;44020;50.890;15.796;2022-11-15T11:09:38;97332.12;;;9.44;88.87
58223;BME280;44020;50.890;15.796;2022-11-15T11:12:10;97327.35;;;9.56;88.49
58223;BME280;44020;50.890;15.796;2022-11-15T11:14:38;97327.14;;;9.64;88.50
58223;BME280;44020;50.890;15.796;2022-11-15T11:20:24;97315.91;;;9.82;88.23
58223;BME280;44020;50.890;15.796;2022-11-15T11:25:46;97309.70;;;9.99;87.85
58223;BME280;44020;50.890;15.796;2022-11-15T11:28:48;97307.73;;;10.06;87.66
58223;BME280;44020;50.890;15.796;2022-11-15T11:31:34;97310.14;;;10.16;87.44
58223;BME280;44020;50.890;15.796;2022-11-15T11:34:17;97310.27;;;10.24;87.26
58223;BME280;44020;50.890;15.796;2022-11-15T11:42:42;97293.70;;;10.45;86.37
58223;BME280;44020;50.890;15.796;2022-11-15T11:48:45;97285.86;;;10.54;86.02
58223;BME280;44020;50.890;15.796;2022-11-15T11:51:10;97276.34;;;10.62;85.84
58223;BME280;44020;50.890;15.796;2022-11-15T11:53:57;97270.84;;;10.71;85.67
58223;BME280;44020;50.890;15.796;2022-11-15T11:56:31;97266.98;;;10.80;85.40
58223;BME280;44020;50.890;15.796;2022-11-15T11:59:29;97264.00;;;10.86;85.12
58223;BME280;44020;50.890;15.796;2022-11-15T12:05:13;97259.02;;;10.99;84.43
58223;BME280;44020;50.890;15.796;2022-11-15T12:07:44;97251.62;;;11.03;83.93
58223;BME280;44020;50.890;15.796;2022-11-15T12:10:24;97251.34;;;11.04;83.38
58223;BME280;44020;50.890;15.796;2022-11-15T12:13:10;97245.20;;;11.03;82.89
58223;BME280;44020;50.890;15.796;2022-11-15T12:15:53;97239.78;;;11.02;82.78
58223;BME280;44020;50.890;15.796;2022-11-15T12:18:23;97236.44;;;10.99;82.58
58223;BME280;44020;50.890;15.796;2022-11-15T12:21:07;97235.35;;;10.98;82.55
58223;BME280;44020;50.890;15.796;2022-11-15T12:23:46;97235.78;;;10.96;82.27
58223;BME280;44020;50.890;15.796;2022-11-15T12:26:24;97231.63;;;10.95;81.99
58223;BME280;44020;50.890;15.796;2022-11-15T12:29:03;97231.00;;;10.94;81.89
58223;BME280;44020;50.890;15.796;2022-11-15T12:34:03;97224.26;;;10.92;81.73
58223;BME280;44020;50.890;15.796;2022-11-15T12:36:38;97225.94;;;10.93;81.49
58223;BME280;44020;50.890;15.796;2022-11-15T12:39:11;97227.29;;;10.94;81.02
58223;BME280;44020;50.890;15.796;2022-11-15T12:41:44;97227.15;;;10.93;80.84
58223;BME280;44020;50.890;15.796;2022-11-15T12:59:54;97218.89;;;10.97;80.05
58223;BME280;44020;50.890;15.796;2022-11-15T13:02:28;97219.26;;;10.99;79.57
58223;BME280;44020;50.890;15.796;2022-11-15T13:05:51;97219.61;;;11.01;79.61
58223;BME280;44020;50.890;15.796;2022-11-15T13:08:39;97214.30;;;11.03;79.20
58223;BME280;44020;50.890;15.796;2022-11-15T13:11:42;97211.71;;;11.07;79.21
58223;BME280;44020;50.890;15.796;2022-11-15T13:17:02;97210.68;;;11.17;78.71
58223;BME280;44020;50.890;15.796;2022-11-15T13:19:30;97207.85;;;11.24;78.67
58223;BME280;44020;50.890;15.796;2022-11-15T13:21:57;97202.45;;;11.31;78.51
58223;BME280;44020;50.890;15.796;2022-11-15T13:24:42;97192.73;;;11.45;78.05
58223;BME280;44020;50.890;15.796;2022-11-15T13:27:15;97193.61;;;11.86;78.39
58223;BME280;44020;50.890;15.796;2022-11-15T13:29:45;97192.85;;;12.93;77.60
58223;BME280;44020;50.890;15.796;2022-11-15T13:32:13;97192.89;;;14.20;75.88
58223;BME280;44020;50.890;15.796;2022-11-15T13:34:49;97184.61;;;15.07;73.24
58223;BME280;44020;50.890;15.796;2022-11-15T13:39:48;97180.22;;;15.04;71.90
58223;BME280;44020;50.890;15.796;2022-11-15T13:42:18;97181.41;;;15.85;70.63
58223;BME280;44020;50.890;15.796;2022-11-15T13:44:59;97175.69;;;16.36;69.18
58223;BME280;44020;50.890;15.796;2022-11-15T13:47:28;97170.55;;;16.74;67.58
58223;BME280;44020;50.890;15.796;2022-11-15T13:49:57;97170.91;;;16.30;66.14
58223;BME280;44020;50.890;15.796;2022-11-15T13:52:32;97171.71;;;15.59;66.04
58223;BME280;44020;50.890;15.796;2022-11-15T13:55:13;97175.56;;;14.97;66.35
58223;BME280;44020;50.890;15.796;2022-11-15T13:57:45;97177.13;;;14.41;66.75
58223;BME280;44020;50.890;15.796;2022-11-15T14:02:49;97174.41;;;13.56;67.30
58223;BME280;44020;50.890;15.796;2022-11-15T14:05:18;97173.14;;;13.24;67.68
58223;BME280;44020;50.890;15.796;2022-11-15T14:08:22;97172.85;;;12.96;68.01
58223;BME280;44020;50.890;15.796;2022-11-15T14:11:15;97171.30;;;12.65;68.41
58223;BME280;44020;50.890;15.796;2022-11-15T14:19:06;97166.43;;;11.95;69.35
58223;BME280;44020;50.890;15.796;2022-11-15T14:21:36;97162.27;;;11.78;69.65
58223;BME280;44020;50.890;15.796;2022-11-15T14:24:17;97165.36;;;11.60;69.65
58223;BME280;44020;50.890;15.796;2022-11-15T14:26:44;97166.69;;;11.42;70.02
58223;BME280;44020;50.890;15.796;2022-11-15T14:29:30;97164.75;;;11.29;70.27
58223;BME280;44020;50.890;15.796;2022-11-15T14:32:28;97155.15;;;11.18;70.45
58223;BME280;44020;50.890;15.796;2022-11-15T14:35:01;97154.76;;;11.03;70.52
58223;BME280;44020;50.890;15.796;2022-11-15T14:37:30;97155.70;;;10.93;70.87
58223;BME280;44020;50.890;15.796;2022-11-15T14:40:05;97156.51;;;10.81;71.01
58223;BME280;44020;50.890;15.796;2022-11-15T14:42:33;97156.03;;;10.71;71.30
58223;BME280;44020;50.890;15.796;2022-11-15T14:45:00;97156.16;;;10.63;71.57
58223;BME280;44020;50.890;15.796;2022-11-15T14:47:27;97153.64;;;10.55;71.66
58223;BME280;44020;50.890;15.796;2022-11-15T14:49:54;97154.61;;;10.47;71.60